Willimantic, CT (06226)

10:09 PM EDT on March 29, 2015 (GMT -0400)
Charles H. Barrows STEM Academy | | Change Station
CLOSE
Current Station
Personal Weather Station
Location: Windham, CT
Elevation: 361 ft
Nearby Weather Stations

Elev 361 ft 41.72 °N, 72.18 °W | Updated 4 minutes ago

Clear
Clear
32.0 °F
Feels Like 32 °F
N
3.0
Wind Variable Wind from South

Today
High -- | Low -- °F
--% Chance of Precip.
Yesterday
High -- | Low -- °F
Precip. -- in
6:37 AM 7:10 PM
Waxing Gibbous, 76% visible
Pressure 30.12 in
Visibility 10.0 miles
Clouds Clear
Windchill 32 °F
Dew Point 7 °F
Humidity 34%
Rainfall 0.00 in
Snow Depth Not available.
UV 0 out of 12
Pollen 5.90 out of 12
Air Quality Not available.
Flu Activity Not available.
METAR KIJD 300152Z AUTO 00000KT 10SM CLR M03/M08 A3011 RMK AO2 SLP200 T10281078 $

More Conditions Fewer Conditions

Pressure 30.12 in
Visibility 10.0 miles
Clouds Clear
Windchill 32 °F
Dew Point 7 °F
Humidity 34%
Rainfall 0.00 in
Snow Depth Not available.
UV 0 out of 12
Pollen 5.90 out of 12
Air Quality Not available.
Flu Activity Not available.
METAR KIJD 300152Z AUTO 00000KT 10SM CLR M03/M08 A3011 RMK AO2 SLP200 T10281078 $

More Conditions Fewer Conditions

10-Day Weather Forecast

Almanac

Astronomy

Mar. 29, 2015 Rise Set
Actual Time
Civil Twilight
Nautical Twilight
Astronomical Twilight
Moon
Length of Visible Light
Length of Day
Tomorrow will be .
, % of the Moon is Illuminated

Today's Extremes

State Highs State Lows

Community

WunderPhotos

Upload Photos

1,809,405 photos uploaded!

WunderBlogs® & News

Nearby

Air Quality

  Air Quality AQ Index Pollutant
Not available.

Snow Depth

Station Depth Elevation

Earthquake Activity

City Distance Mag. Time & Date
Minimum magnitude displayed is 2.5.

Coastal Water Temperatures

Place Temperature

Stations

Nearby Weather Stations

Station Location Temp. Windchill Dew Point Humidity Wind Precip. Elev Updated Type